West Miltmore, Illinois
Current Conditions -  °F | °C
As of 9:55 AM on Monday 24 Nov 2014 (Local Time) from KUGN Reporting Station
Light Rain Light Rain  
Wind Chill: 34°   Ceiling: 800
Heat Index: 41°   Visibility: 4mi
Dew Point: 40°   Wind: 13mph
Humidity: 96%   Direction: 270°W
Pressure: 29.13"   Gusts: 22mph
Location:  42.4132°N, 88.0615°W
Report Text: KUGN 241555Z 27011G19KT 230V300 4SM -RA BR OVC008 05/04 A2913 RMK AO2 CIG 005V012 SLP868 P0005 T00500044
Loading
Personal Weather Stations






























Interactive Weather Map New forecast layout! Learn more

10-Day Weather Forecast

Advertisements
Track Severe Weather on mobile